sensor_id;sensor_type;location;lat;lon;timestamp;pressure;altitude;pressure_sealevel;temperature;humidity
42601;BME280;28229;48.856;9.088;2022-10-26T00:02:17;97946.59;;;11.88;99.50
42601;BME280;28229;48.856;9.088;2022-10-26T00:04:43;97949.47;;;11.87;99.31
42601;BME280;28229;48.856;9.088;2022-10-26T00:07:09;97947.06;;;11.85;99.36
42601;BME280;28229;48.856;9.088;2022-10-26T00:09:35;97955.78;;;11.86;99.65
42601;BME280;28229;48.856;9.088;2022-10-26T00:12:02;97960.47;;;11.84;99.45
42601;BME280;28229;48.856;9.088;2022-10-26T00:14:28;97962.66;;;11.87;99.21
42601;BME280;28229;48.856;9.088;2022-10-26T00:16:54;97962.22;;;11.90;98.29
42601;BME280;28229;48.856;9.088;2022-10-26T00:19:20;97956.56;;;11.86;98.40
42601;BME280;28229;48.856;9.088;2022-10-26T00:21:46;97963.84;;;11.91;98.13
42601;BME280;28229;48.856;9.088;2022-10-26T00:24:11;97955.69;;;11.92;98.11
42601;BME280;28229;48.856;9.088;2022-10-26T00:26:38;97952.84;;;11.94;97.92
42601;BME280;28229;48.856;9.088;2022-10-26T00:29:04;97949.19;;;11.95;97.21
42601;BME280;28229;48.856;9.088;2022-10-26T00:31:30;97954.03;;;11.98;96.18
42601;BME280;28229;48.856;9.088;2022-10-26T00:33:56;97956.31;;;11.94;96.69
42601;BME280;28229;48.856;9.088;2022-10-26T00:36:24;97957.66;;;11.97;96.49
42601;BME280;28229;48.856;9.088;2022-10-26T00:38:52;97958.81;;;12.01;96.23
42601;BME280;28229;48.856;9.088;2022-10-26T00:41:22;97953.31;;;12.03;95.97
42601;BME280;28229;48.856;9.088;2022-10-26T00:43:49;97958.81;;;12.01;96.62
42601;BME280;28229;48.856;9.088;2022-10-26T00:46:23;97959.16;;;11.93;96.97
42601;BME280;28229;48.856;9.088;2022-10-26T00:49:15;97963.97;;;11.96;98.05
42601;BME280;28229;48.856;9.088;2022-10-26T00:51:48;97956.13;;;11.89;98.69
42601;BME280;28229;48.856;9.088;2022-10-26T00:54:16;97954.75;;;11.87;98.50
42601;BME280;28229;48.856;9.088;2022-10-26T00:56:44;97967.63;;;11.95;97.48
42601;BME280;28229;48.856;9.088;2022-10-26T00:59:11;97962.81;;;11.92;97.01
42601;BME280;28229;48.856;9.088;2022-10-26T01:01:40;97972.91;;;11.95;96.43
42601;BME280;28229;48.856;9.088;2022-10-26T01:04:07;97966.94;;;11.99;95.85
42601;BME280;28229;48.856;9.088;2022-10-26T01:06:34;97968.34;;;12.02;95.41
42601;BME280;28229;48.856;9.088;2022-10-26T01:09:02;97973.72;;;11.95;96.36
42601;BME280;28229;48.856;9.088;2022-10-26T01:11:27;97966.03;;;11.94;97.00
42601;BME280;28229;48.856;9.088;2022-10-26T01:13:54;97967.06;;;11.93;97.73
42601;BME280;28229;48.856;9.088;2022-10-26T01:19:33;97959.28;;;11.98;99.74
42601;BME280;28229;48.856;9.088;2022-10-26T01:22:13;97954.03;;;11.98;100.00
42601;BME280;28229;48.856;9.088;2022-10-26T01:25:11;97956.06;;;11.96;100.00
42601;BME280;28229;48.856;9.088;2022-10-26T01:27:49;97945.41;;;12.03;100.00
42601;BME280;28229;48.856;9.088;2022-10-26T01:30:17;97936.72;;;12.02;100.00
42601;BME280;28229;48.856;9.088;2022-10-26T01:35:48;97929.25;;;11.99;100.00
42601;BME280;28229;48.856;9.088;2022-10-26T01:38:24;97934.50;;;11.99;100.00
42601;BME280;28229;48.856;9.088;2022-10-26T01:44:06;97926.28;;;12.07;100.00
42601;BME280;28229;48.856;9.088;2022-10-26T01:46:37;97925.72;;;12.05;100.00
42601;BME280;28229;48.856;9.088;2022-10-26T01:49:08;97912.53;;;12.05;99.72
42601;BME280;28229;48.856;9.088;2022-10-26T01:51:37;97912.53;;;12.05;100.00
42601;BME280;28229;48.856;9.088;2022-10-26T01:54:03;97921.72;;;12.14;100.00
42601;BME280;28229;48.856;9.088;2022-10-26T01:56:31;97924.81;;;12.23;97.88
42601;BME280;28229;48.856;9.088;2022-10-26T02:07:12;97891.31;;;12.12;99.41
42601;BME280;28229;48.856;9.088;2022-10-26T02:09:56;97892.81;;;12.08;99.93
42601;BME280;28229;48.856;9.088;2022-10-26T02:12:56;97890.06;;;12.14;98.79
42601;BME280;28229;48.856;9.088;2022-10-26T02:15:36;97896.47;;;12.18;97.59
42601;BME280;28229;48.856;9.088;2022-10-26T02:18:14;97895.91;;;12.16;97.26
42601;BME280;28229;48.856;9.088;2022-10-26T02:20:47;97901.06;;;12.11;98.45
42601;BME280;28229;48.856;9.088;2022-10-26T02:23:14;97902.56;;;12.07;99.26
42601;BME280;28229;48.856;9.088;2022-10-26T02:25:48;97914.25;;;12.11;98.49
42601;BME280;28229;48.856;9.088;2022-10-26T02:28:19;97913.69;;;12.09;98.08
42601;BME280;28229;48.856;9.088;2022-10-26T02:30:49;97925.84;;;12.10;97.30
42601;BME280;28229;48.856;9.088;2022-10-26T02:33:18;97927.44;;;12.11;96.99
42601;BME280;28229;48.856;9.088;2022-10-26T02:35:47;97940.84;;;12.10;96.71
42601;BME280;28229;48.856;9.088;2022-10-26T02:38:16;97938.91;;;12.05;97.45
42601;BME280;28229;48.856;9.088;2022-10-26T02:40:45;97941.31;;;12.07;97.84
42601;BME280;28229;48.856;9.088;2022-10-26T02:43:14;97940.13;;;12.03;98.07
42601;BME280;28229;48.856;9.088;2022-10-26T02:45:48;97937.28;;;12.04;98.58
42601;BME280;28229;48.856;9.088;2022-10-26T02:48:17;97939.78;;;11.99;99.17
42601;BME280;28229;48.856;9.088;2022-10-26T02:53:30;97917.69;;;12.00;99.93
42601;BME280;28229;48.856;9.088;2022-10-26T02:55:59;97917.91;;;11.98;100.00
42601;BME280;28229;48.856;9.088;2022-10-26T02:58:30;97932.44;;;12.01;100.00
42601;BME280;28229;48.856;9.088;2022-10-26T03:00:59;97930.03;;;11.99;100.00
42601;BME280;28229;48.856;9.088;2022-10-26T03:03:25;97942.88;;;11.96;100.00
42601;BME280;28229;48.856;9.088;2022-10-26T03:05:50;97931.75;;;11.94;100.00
42601;BME280;28229;48.856;9.088;2022-10-26T03:08:16;97956.06;;;11.96;100.00
42601;BME280;28229;48.856;9.088;2022-10-26T03:10:43;97937.72;;;12.01;100.00
42601;BME280;28229;48.856;9.088;2022-10-26T03:13:11;97943.34;;;12.05;100.00
42601;BME280;28229;48.856;9.088;2022-10-26T03:15:38;97956.31;;;12.06;100.00
42601;BME280;28229;48.856;9.088;2022-10-26T03:18:04;97960.75;;;11.94;100.00
42601;BME280;28229;48.856;9.088;2022-10-26T03:20:30;97948.84;;;11.91;100.00
42601;BME280;28229;48.856;9.088;2022-10-26T03:22:56;97954.91;;;11.92;100.00
42601;BME280;28229;48.856;9.088;2022-10-26T03:25:23;97956.13;;;11.89;100.00
42601;BME280;28229;48.856;9.088;2022-10-26T03:28:00;97957.88;;;11.95;100.00
42601;BME280;28229;48.856;9.088;2022-10-26T03:30:30;97958.50;;;12.09;100.00
42601;BME280;28229;48.856;9.088;2022-10-26T03:32:56;97950.16;;;12.12;99.78
42601;BME280;28229;48.856;9.088;2022-10-26T03:35:22;97956.56;;;12.16;99.59
42601;BME280;28229;48.856;9.088;2022-10-26T03:37:48;97975.38;;;12.20;98.46
42601;BME280;28229;48.856;9.088;2022-10-26T03:40:15;97966.44;;;12.33;97.20
42601;BME280;28229;48.856;9.088;2022-10-26T03:42:41;97961.19;;;12.33;97.34
42601;BME280;28229;48.856;9.088;2022-10-26T03:45:07;97957.16;;;12.42;95.61
42601;BME280;28229;48.856;9.088;2022-10-26T03:47:34;97958.13;;;12.48;96.17
42601;BME280;28229;48.856;9.088;2022-10-26T03:50:05;97948.34;;;12.48;95.99
42601;BME280;28229;48.856;9.088;2022-10-26T03:52:30;97946.28;;;12.50;96.73
42601;BME280;28229;48.856;9.088;2022-10-26T03:54:56;97953.28;;;12.45;97.69
42601;BME280;28229;48.856;9.088;2022-10-26T03:57:22;97952.50;;;12.44;98.06
42601;BME280;28229;48.856;9.088;2022-10-26T03:59:48;97947.78;;;12.46;97.48
42601;BME280;28229;48.856;9.088;2022-10-26T04:02:14;97958.69;;;12.50;96.97
42601;BME280;28229;48.856;9.088;2022-10-26T04:04:40;97957.28;;;12.47;97.12
42601;BME280;28229;48.856;9.088;2022-10-26T04:07:05;97955.81;;;12.40;97.62
42601;BME280;28229;48.856;9.088;2022-10-26T04:09:31;97950.31;;;12.41;98.21
42601;BME280;28229;48.856;9.088;2022-10-26T04:11:57;97945.81;;;12.42;98.01
42601;BME280;28229;48.856;9.088;2022-10-26T04:14:23;97940.75;;;12.40;98.43
42601;BME280;28229;48.856;9.088;2022-10-26T04:16:48;97935.38;;;12.35;98.96
42601;BME280;28229;48.856;9.088;2022-10-26T04:19:14;97933.56;;;12.35;98.75
42601;BME280;28229;48.856;9.088;2022-10-26T04:21:40;97929.97;;;12.30;98.83
42601;BME280;28229;48.856;9.088;2022-10-26T04:24:06;97930.22;;;12.40;97.37
42601;BME280;28229;48.856;9.088;2022-10-26T04:26:32;97926.09;;;12.44;95.72
42601;BME280;28229;48.856;9.088;2022-10-26T04:28:57;97932.41;;;12.55;94.25
42601;BME280;28229;48.856;9.088;2022-10-26T04:31:23;97925.97;;;12.74;92.91
42601;BME280;28229;48.856;9.088;2022-10-26T04:33:49;97925.84;;;12.81;91.90
42601;BME280;28229;48.856;9.088;2022-10-26T04:36:15;97926.84;;;12.92;91.40
42601;BME280;28229;48.856;9.088;2022-10-26T04:38:40;97922.91;;;13.06;90.06
42601;BME280;28229;48.856;9.088;2022-10-26T04:41:06;97940.72;;;13.11;90.15
42601;BME280;28229;48.856;9.088;2022-10-26T04:43:32;97937.47;;;13.21;89.57
42601;BME280;28229;48.856;9.088;2022-10-26T04:45:58;97943.19;;;13.29;88.97
42601;BME280;28229;48.856;9.088;2022-10-26T04:48:24;97944.47;;;13.39;87.89
42601;BME280;28229;48.856;9.088;2022-10-26T04:50:50;97935.03;;;13.43;88.10
42601;BME280;28229;48.856;9.088;2022-10-26T04:53:16;97930.53;;;13.43;88.20
42601;BME280;28229;48.856;9.088;2022-10-26T04:55:41;97934.31;;;13.47;87.21
42601;BME280;28229;48.856;9.088;2022-10-26T04:58:07;97937.06;;;13.52;87.32
42601;BME280;28229;48.856;9.088;2022-10-26T05:00:33;97931.41;;;13.61;86.56
42601;BME280;28229;48.856;9.088;2022-10-26T05:03:03;97920.38;;;13.64;86.80
42601;BME280;28229;48.856;9.088;2022-10-26T05:05:30;97915.97;;;13.69;86.17
42601;BME280;28229;48.856;9.088;2022-10-26T05:07:56;97926.06;;;13.73;86.43
42601;BME280;28229;48.856;9.088;2022-10-26T05:10:23;97932.94;;;13.74;87.07
42601;BME280;28229;48.856;9.088;2022-10-26T05:12:54;97940.31;;;13.71;87.28
42601;BME280;28229;48.856;9.088;2022-10-26T05:15:20;97929.59;;;13.78;87.30
42601;BME280;28229;48.856;9.088;2022-10-26T05:17:46;97933.84;;;13.79;86.92
42601;BME280;28229;48.856;9.088;2022-10-26T05:20:12;97929.59;;;13.78;86.88
42601;BME280;28229;48.856;9.088;2022-10-26T05:22:39;97944.97;;;13.81;87.10
42601;BME280;28229;48.856;9.088;2022-10-26T05:25:05;97942.59;;;13.80;87.19
42601;BME280;28229;48.856;9.088;2022-10-26T05:27:31;97949.47;;;13.81;87.07
42601;BME280;28229;48.856;9.088;2022-10-26T05:29:57;97949.13;;;13.77;87.34
42601;BME280;28229;48.856;9.088;2022-10-26T05:32:23;97952.84;;;13.76;87.74
42601;BME280;28229;48.856;9.088;2022-10-26T05:34:49;97952.00;;;13.76;88.04
42601;BME280;28229;48.856;9.088;2022-10-26T05:37:14;97960.50;;;13.78;87.98
42601;BME280;28229;48.856;9.088;2022-10-26T05:39:41;97964.31;;;13.82;87.95
42601;BME280;28229;48.856;9.088;2022-10-26T05:42:08;97970.06;;;13.79;89.88
42601;BME280;28229;48.856;9.088;2022-10-26T05:44:33;97968.53;;;13.83;88.72
42601;BME280;28229;48.856;9.088;2022-10-26T05:46:59;97973.22;;;13.93;87.70
42601;BME280;28229;48.856;9.088;2022-10-26T05:49:25;97980.91;;;13.94;87.66
42601;BME280;28229;48.856;9.088;2022-10-26T05:51:51;97974.00;;;13.93;88.04
42601;BME280;28229;48.856;9.088;2022-10-26T05:54:16;97979.88;;;13.95;88.35
42601;BME280;28229;48.856;9.088;2022-10-26T05:56:42;97982.03;;;13.98;86.61
42601;BME280;28229;48.856;9.088;2022-10-26T05:59:14;97978.84;;;13.96;86.51
42601;BME280;28229;48.856;9.088;2022-10-26T06:01:59;97993.59;;;13.92;86.64
42601;BME280;28229;48.856;9.088;2022-10-26T06:04:41;97986.59;;;13.86;87.59
42601;BME280;28229;48.856;9.088;2022-10-26T06:07:16;97988.75;;;13.89;89.45
42601;BME280;28229;48.856;9.088;2022-10-26T06:09:44;98002.91;;;13.83;88.25
42601;BME280;28229;48.856;9.088;2022-10-26T06:12:11;98007.63;;;13.81;88.52
42601;BME280;28229;48.856;9.088;2022-10-26T06:14:37;98022.00;;;13.85;89.67
42601;BME280;28229;48.856;9.088;2022-10-26T06:20:02;98022.91;;;13.90;90.58
42601;BME280;28229;48.856;9.088;2022-10-26T06:29:00;98043.47;;;13.88;92.02
42601;BME280;28229;48.856;9.088;2022-10-26T06:31:28;98056.47;;;13.90;90.60
42601;BME280;28229;48.856;9.088;2022-10-26T06:34:47;98054.41;;;13.92;91.24
42601;BME280;28229;48.856;9.088;2022-10-26T06:36:48;98050.34;;;14.01;87.34
42601;BME280;28229;48.856;9.088;2022-10-26T06:39:15;98055.72;;;14.06;88.61
42601;BME280;28229;48.856;9.088;2022-10-26T06:41:42;98059.50;;;14.11;86.89
42601;BME280;28229;48.856;9.088;2022-10-26T06:44:47;98058.94;;;14.08;87.18
42601;BME280;28229;48.856;9.088;2022-10-26T06:47:31;98070.34;;;13.97;87.83
42601;BME280;28229;48.856;9.088;2022-10-26T06:50:44;98067.91;;;14.07;88.46
42601;BME280;28229;48.856;9.088;2022-10-26T06:55:45;98066.22;;;14.01;88.12
42601;BME280;28229;48.856;9.088;2022-10-26T06:58:16;98069.31;;;13.98;87.87
42601;BME280;28229;48.856;9.088;2022-10-26T07:00:47;98063.84;;;13.88;88.55
42601;BME280;28229;48.856;9.088;2022-10-26T07:03:14;98071.31;;;13.91;89.26
42601;BME280;28229;48.856;9.088;2022-10-26T07:05:41;98076.94;;;13.95;88.51
42601;BME280;28229;48.856;9.088;2022-10-26T07:08:07;98070.34;;;13.97;88.41
42601;BME280;28229;48.856;9.088;2022-10-26T07:10:33;98074.38;;;14.00;88.74
42601;BME280;28229;48.856;9.088;2022-10-26T07:13:04;98070.69;;;14.01;88.51
42601;BME280;28229;48.856;9.088;2022-10-26T07:15:32;98073.66;;;14.04;88.42
42601;BME280;28229;48.856;9.088;2022-10-26T07:17:58;98076.78;;;14.01;88.81
42601;BME280;28229;48.856;9.088;2022-10-26T07:20:24;98082.56;;;13.98;89.61
42601;BME280;28229;48.856;9.088;2022-10-26T07:22:52;98090.25;;;14.00;90.02
42601;BME280;28229;48.856;9.088;2022-10-26T07:25:18;98088.97;;;14.02;89.76
42601;BME280;28229;48.856;9.088;2022-10-26T07:27:44;98091.16;;;14.05;90.24
42601;BME280;28229;48.856;9.088;2022-10-26T07:30:11;98098.53;;;14.03;90.65
42601;BME280;28229;48.856;9.088;2022-10-26T07:32:36;98101.97;;;14.04;90.45
42601;BME280;28229;48.856;9.088;2022-10-26T07:35:03;98105.06;;;14.01;90.76
42601;BME280;28229;48.856;9.088;2022-10-26T07:37:29;98106.00;;;14.06;90.52
42601;BME280;28229;48.856;9.088;2022-10-26T07:39:54;98108.03;;;14.04;90.73
42601;BME280;28229;48.856;9.088;2022-10-26T07:42:21;98099.19;;;14.11;90.53
42601;BME280;28229;48.856;9.088;2022-10-26T07:44:47;98112.75;;;14.14;90.51
42601;BME280;28229;48.856;9.088;2022-10-26T07:47:12;98116.63;;;14.23;89.95
42601;BME280;28229;48.856;9.088;2022-10-26T07:49:38;98119.03;;;14.25;89.93
42601;BME280;28229;48.856;9.088;2022-10-26T07:52:04;98113.28;;;14.28;89.90
42601;BME280;28229;48.856;9.088;2022-10-26T07:54:31;98110.41;;;14.30;89.71
42601;BME280;28229;48.856;9.088;2022-10-26T07:56:57;98118.06;;;14.31;89.84
42601;BME280;28229;48.856;9.088;2022-10-26T07:59:23;98113.09;;;14.35;89.13
42601;BME280;28229;48.856;9.088;2022-10-26T08:01:48;98109.75;;;14.39;88.74
42601;BME280;28229;48.856;9.088;2022-10-26T08:04:15;98117.00;;;14.44;88.61
42601;BME280;28229;48.856;9.088;2022-10-26T08:06:41;98119.38;;;14.45;89.13
42601;BME280;28229;48.856;9.088;2022-10-26T08:09:07;98115.25;;;14.50;88.74
42601;BME280;28229;48.856;9.088;2022-10-26T08:11:33;98113.72;;;14.54;88.27
42601;BME280;28229;48.856;9.088;2022-10-26T08:14:01;98119.13;;;14.59;88.22
42601;BME280;28229;48.856;9.088;2022-10-26T08:16:28;98119.47;;;14.62;88.23
42601;BME280;28229;48.856;9.088;2022-10-26T08:18:54;98120.81;;;14.65;87.70
42601;BME280;28229;48.856;9.088;2022-10-26T08:21:20;98123.78;;;14.69;87.30
42601;BME280;28229;48.856;9.088;2022-10-26T08:23:45;98124.94;;;14.73;86.79
42601;BME280;28229;48.856;9.088;2022-10-26T08:26:11;98127.69;;;14.78;86.74
42601;BME280;28229;48.856;9.088;2022-10-26T08:28:38;98120.75;;;14.77;87.12
42601;BME280;28229;48.856;9.088;2022-10-26T08:31:05;98119.47;;;14.79;87.57
42601;BME280;28229;48.856;9.088;2022-10-26T08:33:31;98122.72;;;14.81;87.27
42601;BME280;28229;48.856;9.088;2022-10-26T08:36:03;98121.09;;;14.80;87.22
42601;BME280;28229;48.856;9.088;2022-10-26T08:38:29;98124.06;;;14.84;86.57
42601;BME280;28229;48.856;9.088;2022-10-26T08:40:56;98136.84;;;14.87;86.87
42601;BME280;28229;48.856;9.088;2022-10-26T08:48:37;98140.53;;;15.03;86.05
42601;BME280;28229;48.856;9.088;2022-10-26T08:51:31;98138.75;;;15.09;85.84
42601;BME280;28229;48.856;9.088;2022-10-26T08:56:38;98157.25;;;15.20;85.42
42601;BME280;28229;48.856;9.088;2022-10-26T09:01:56;98162.69;;;15.31;85.21
42601;BME280;28229;48.856;9.088;2022-10-26T09:04:25;98168.22;;;15.46;85.04
42601;BME280;28229;48.856;9.088;2022-10-26T09:18:34;98179.31;;;15.99;82.92
42601;BME280;28229;48.856;9.088;2022-10-26T09:21:26;98183.94;;;16.09;81.50
42601;BME280;28229;48.856;9.088;2022-10-26T09:24:02;98176.34;;;16.17;82.01
42601;BME280;28229;48.856;9.088;2022-10-26T09:29:02;98182.50;;;16.45;79.91
42601;BME280;28229;48.856;9.088;2022-10-26T09:31:39;98201.19;;;16.55;79.21
42601;BME280;28229;48.856;9.088;2022-10-26T09:34:07;98205.78;;;16.60;79.13
42601;BME280;28229;48.856;9.088;2022-10-26T09:36:37;98207.13;;;16.85;79.32
42601;BME280;28229;48.856;9.088;2022-10-26T09:39:13;98214.31;;;17.17;78.83
42601;BME280;28229;48.856;9.088;2022-10-26T09:41:45;98214.75;;;17.41;75.89
42601;BME280;28229;48.856;9.088;2022-10-26T09:44:38;98211.75;;;17.69;75.64
42601;BME280;28229;48.856;9.088;2022-10-26T09:47:14;98214.13;;;18.08;73.69
42601;BME280;28229;48.856;9.088;2022-10-26T09:49:53;98217.19;;;18.33;72.20
42601;BME280;28229;48.856;9.088;2022-10-26T09:52:20;98216.09;;;18.29;72.26
42601;BME280;28229;48.856;9.088;2022-10-26T09:54:46;98211.78;;;18.17;72.59
42601;BME280;28229;48.856;9.088;2022-10-26T09:57:14;98211.75;;;18.12;72.97
42601;BME280;28229;48.856;9.088;2022-10-26T09:59:41;98217.06;;;18.07;72.56
42601;BME280;28229;48.856;9.088;2022-10-26T10:04:58;98211.63;;;17.86;72.36
42601;BME280;28229;48.856;9.088;2022-10-26T10:07:24;98219.84;;;17.85;73.26
42601;BME280;28229;48.856;9.088;2022-10-26T10:10:06;98218.47;;;17.77;73.75
42601;BME280;28229;48.856;9.088;2022-10-26T10:12:32;98221.69;;;17.79;73.71
42601;BME280;28229;48.856;9.088;2022-10-26T10:14:58;98229.91;;;17.78;74.27
42601;BME280;28229;48.856;9.088;2022-10-26T10:17:25;98232.16;;;17.91;74.78
42601;BME280;28229;48.856;9.088;2022-10-26T10:19:51;98238.41;;;18.17;74.61
42601;BME280;28229;48.856;9.088;2022-10-26T10:22:24;98239.25;;;18.28;74.10
42601;BME280;28229;48.856;9.088;2022-10-26T10:24:59;98239.03;;;18.35;73.85
42601;BME280;28229;48.856;9.088;2022-10-26T10:27:26;98238.53;;;18.38;73.61
42601;BME280;28229;48.856;9.088;2022-10-26T10:29:54;98245.44;;;18.39;73.66
42601;BME280;28229;48.856;9.088;2022-10-26T10:32:22;98247.63;;;18.52;73.37
42601;BME280;28229;48.856;9.088;2022-10-26T10:34:50;98252.47;;;18.71;72.73
42601;BME280;28229;48.856;9.088;2022-10-26T10:37:37;98248.50;;;18.78;71.37
42601;BME280;28229;48.856;9.088;2022-10-26T10:40:07;98249.38;;;18.99;71.91
42601;BME280;28229;48.856;9.088;2022-10-26T10:42:36;98251.25;;;19.25;69.15
42601;BME280;28229;48.856;9.088;2022-10-26T10:45:05;98251.00;;;19.42;69.30
42601;BME280;28229;48.856;9.088;2022-10-26T10:47:34;98251.00;;;19.31;68.43
42601;BME280;28229;48.856;9.088;2022-10-26T10:50:01;98253.16;;;19.34;67.96
42601;BME280;28229;48.856;9.088;2022-10-26T10:52:30;98253.94;;;19.55;67.33
42601;BME280;28229;48.856;9.088;2022-10-26T11:00:36;98261.63;;;20.08;65.98
42601;BME280;28229;48.856;9.088;2022-10-26T11:03:23;98261.50;;;20.44;65.92
42601;BME280;28229;48.856;9.088;2022-10-26T11:08:56;98272.00;;;20.90;62.51
42601;BME280;28229;48.856;9.088;2022-10-26T11:11:24;98264.09;;;20.75;61.74
42601;BME280;28229;48.856;9.088;2022-10-26T11:13:59;98266.75;;;20.75;63.07
42601;BME280;28229;48.856;9.088;2022-10-26T11:16:41;98277.84;;;20.98;62.39
42601;BME280;28229;48.856;9.088;2022-10-26T11:19:19;98272.41;;;21.13;62.39
42601;BME280;28229;48.856;9.088;2022-10-26T11:21:53;98272.25;;;21.34;61.23
42601;BME280;28229;48.856;9.088;2022-10-26T11:27:02;98273.38;;;21.96;57.04
42601;BME280;28229;48.856;9.088;2022-10-26T11:32:02;98277.28;;;22.33;53.40
42601;BME280;28229;48.856;9.088;2022-10-26T11:37:41;98279.69;;;22.35;53.83
42601;BME280;28229;48.856;9.088;2022-10-26T11:46:04;98277.38;;;22.23;54.30
42601;BME280;28229;48.856;9.088;2022-10-26T11:48:52;98289.31;;;22.36;52.69
42601;BME280;28229;48.856;9.088;2022-10-26T11:51:36;98288.78;;;22.58;52.54
42601;BME280;28229;48.856;9.088;2022-10-26T11:54:24;98288.66;;;22.68;52.09
42601;BME280;28229;48.856;9.088;2022-10-26T11:56:54;98293.09;;;22.59;51.75
42601;BME280;28229;48.856;9.088;2022-10-26T11:59:24;98291.31;;;22.49;52.29
42601;BME280;28229;48.856;9.088;2022-10-26T12:01:55;98292.75;;;22.41;52.29
42601;BME280;28229;48.856;9.088;2022-10-26T12:04:28;98290.44;;;22.30;52.29
42601;BME280;28229;48.856;9.088;2022-10-26T12:06:58;98293.72;;;22.27;53.87
42601;BME280;28229;48.856;9.088;2022-10-26T12:09:30;98285.13;;;22.24;54.51
42601;BME280;28229;48.856;9.088;2022-10-26T12:12:08;98301.59;;;22.13;54.50
42601;BME280;28229;48.856;9.088;2022-10-26T12:14:42;98304.94;;;21.99;55.17
42601;BME280;28229;48.856;9.088;2022-10-26T12:17:17;98297.06;;;21.84;55.84
42601;BME280;28229;48.856;9.088;2022-10-26T12:19:58;98290.09;;;21.83;56.80
42601;BME280;28229;48.856;9.088;2022-10-26T12:22:33;98299.78;;;21.79;57.04
42601;BME280;28229;48.856;9.088;2022-10-26T12:35:32;98310.97;;;21.86;57.24
42601;BME280;28229;48.856;9.088;2022-10-26T12:37:59;98308.19;;;21.96;56.00
42601;BME280;28229;48.856;9.088;2022-10-26T12:45:44;98304.31;;;22.08;55.56
42601;BME280;28229;48.856;9.088;2022-10-26T12:48:39;98306.44;;;22.11;56.15
42601;BME280;28229;48.856;9.088;2022-10-26T12:56:29;98325.69;;;22.66;54.62
42601;BME280;28229;48.856;9.088;2022-10-26T12:59:12;98322.00;;;22.62;53.00
42601;BME280;28229;48.856;9.088;2022-10-26T13:01:55;98337.50;;;22.65;53.83
42601;BME280;28229;48.856;9.088;2022-10-26T13:04:51;98330.63;;;22.59;53.34
42601;BME280;28229;48.856;9.088;2022-10-26T13:07:26;98337.63;;;22.55;51.71
42601;BME280;28229;48.856;9.088;2022-10-26T13:10:02;98334.88;;;22.60;52.57
42601;BME280;28229;48.856;9.088;2022-10-26T13:12:37;98329.97;;;22.67;53.45
42601;BME280;28229;48.856;9.088;2022-10-26T13:15:52;98331.91;;;22.86;52.43
42601;BME280;28229;48.856;9.088;2022-10-26T13:18:20;98334.25;;;22.92;52.08
42601;BME280;28229;48.856;9.088;2022-10-26T13:21:14;98336.81;;;22.78;51.55
42601;BME280;28229;48.856;9.088;2022-10-26T13:23:55;98343.31;;;22.72;52.48
42601;BME280;28229;48.856;9.088;2022-10-26T13:26:24;98341.84;;;22.61;52.55
42601;BME280;28229;48.856;9.088;2022-10-26T13:34:02;98342.88;;;22.65;52.47
42601;BME280;28229;48.856;9.088;2022-10-26T13:39:30;98348.16;;;22.70;53.20
42601;BME280;28229;48.856;9.088;2022-10-26T13:41:58;98349.34;;;22.64;53.51
42601;BME280;28229;48.856;9.088;2022-10-26T13:44:29;98348.59;;;22.58;53.65
42601;BME280;28229;48.856;9.088;2022-10-26T13:47:09;98355.41;;;22.46;54.66
42601;BME280;28229;48.856;9.088;2022-10-26T13:49:40;98358.50;;;22.34;55.05
42601;BME280;28229;48.856;9.088;2022-10-26T13:52:16;98349.59;;;22.38;54.97
42601;BME280;28229;48.856;9.088;2022-10-26T13:54:55;98354.44;;;22.36;55.00
42601;BME280;28229;48.856;9.088;2022-10-26T13:57:42;98354.13;;;22.43;54.53
42601;BME280;28229;48.856;9.088;2022-10-26T14:00:16;98352.22;;;22.43;54.79
42601;BME280;28229;48.856;9.088;2022-10-26T14:02:44;98353.00;;;22.44;55.01
42601;BME280;28229;48.856;9.088;2022-10-26T14:05:12;98357.47;;;22.54;54.82
42601;BME280;28229;48.856;9.088;2022-10-26T14:07:52;98359.41;;;22.72;55.10
42601;BME280;28229;48.856;9.088;2022-10-26T14:10:26;98358.28;;;22.78;55.50
42601;BME280;28229;48.856;9.088;2022-10-26T14:12:53;98369.91;;;22.93;54.59
42601;BME280;28229;48.856;9.088;2022-10-26T14:15:24;98367.03;;;23.08;53.88
42601;BME280;28229;48.856;9.088;2022-10-26T14:17:52;98365.38;;;23.31;53.14
42601;BME280;28229;48.856;9.088;2022-10-26T14:20:22;98371.25;;;23.52;52.32
42601;BME280;28229;48.856;9.088;2022-10-26T14:22:49;98373.44;;;23.69;51.99
42601;BME280;28229;48.856;9.088;2022-10-26T14:25:20;98381.31;;;23.80;50.99
42601;BME280;28229;48.856;9.088;2022-10-26T14:27:47;98372.91;;;23.86;51.11
42601;BME280;28229;48.856;9.088;2022-10-26T14:30:22;98377.44;;;23.91;49.81
42601;BME280;28229;48.856;9.088;2022-10-26T14:32:51;98381.19;;;23.90;50.53
42601;BME280;28229;48.856;9.088;2022-10-26T14:35:21;98382.09;;;23.85;49.54
42601;BME280;28229;48.856;9.088;2022-10-26T14:37:51;98380.81;;;23.77;50.65
42601;BME280;28229;48.856;9.088;2022-10-26T14:40:20;98386.88;;;23.69;50.26
42601;BME280;28229;48.856;9.088;2022-10-26T14:42:59;98396.69;;;23.60;50.48
42601;BME280;28229;48.856;9.088;2022-10-26T14:45:36;98391.53;;;23.45;50.38
42601;BME280;28229;48.856;9.088;2022-10-26T14:48:05;98396.53;;;23.32;50.92
42601;BME280;28229;48.856;9.088;2022-10-26T14:50:32;98400.66;;;23.25;50.70
42601;BME280;28229;48.856;9.088;2022-10-26T14:53:15;98391.63;;;23.15;50.79
42601;BME280;28229;48.856;9.088;2022-10-26T14:55:49;98403.03;;;23.07;51.05
42601;BME280;28229;48.856;9.088;2022-10-26T14:58:21;98400.72;;;22.95;50.83
42601;BME280;28229;48.856;9.088;2022-10-26T15:03:50;98405.69;;;22.59;53.17
42601;BME280;28229;48.856;9.088;2022-10-26T15:06:30;98403.91;;;22.49;52.42
42601;BME280;28229;48.856;9.088;2022-10-26T15:09:00;98409.66;;;22.37;52.34
42601;BME280;28229;48.856;9.088;2022-10-26T15:11:26;98408.91;;;22.32;52.49
42601;BME280;28229;48.856;9.088;2022-10-26T15:13:54;98414.31;;;22.27;53.09